Strona główna
METAR-TAF:

METAR-TAF

Lotnisko :

Port lotniczy Oslo-Gardermoen

Oslo, Norwegia

Szerokość geograficzna: 60-12N, Długość geograficzna: 011-05E, wysokość: 208 m

Aktualna obserwacja pogody

Raport powstał 28 minut temu, godzina 03:20 UTC
Wiatr 3 kt od północny zachód, zmienny między zachód i północno-północny zachód
Temperatura 16°C
Wilgotność 59%
Ciśnienie 1015 hPa
Widzialność 10 km lub więcej
Brak chmur poniżej 1500 m i brak chmur cumulonimbus

METAR: ENGM 250320Z 31003KT 270V340 CAVOK 16/08 Q1015

czas: 05:48 (03:48 UTC)

Prognoza

Prognoza ważna od 25 godzina 00 UTC do 25 godzina 24 UTC
Wiatr 8 kt od północ
Widzialność 10 km lub więcej
Brak chmur poniżej 1500 m i brak chmur cumulonimbus

TAF: ENGM 2500/2524 36008KT CAVOK

Obserwacja i prognoza pogody dla ponad 4000 lotnisk (raport METAR i TAF).

Dostępne stacje oznaczono żółtymi i czerwonymi punktami na mapie.

Najedź kursorem aby zobaczyć nazwę stacji.

Kliknij aby zobaczyć obserwacje i prognozy pogody.

Aby zmienić mapę: kliknij na zielony przycisk z czarnym krzyżykiem, aby powiększyć; na zielony przycisk z myślnikiem, aby pomniejszyć; na zielone strzałki, aby przejść do map sąsiednich.


METAR-TAF: